Nave Sextans — 3FOJ3 — position and weather

sailwx.info

Track history (hours):
 
Tides and Currents Weather Stations Pressure Air Temp Water Temp Dewpoint Dewpoint Depression Visibility Wind Speed Wind Dir Waves Ship Positions

Nave Sextans

Last reported at 2018-Feb-22 18:27 UTC. Time now 2018-Feb-22 19:15 UTC.
Position N 38°02' W 124°13'.

Length 183 m; draft 8.2 m.

Type: Tanker. MMSI: 372151000.

Date/timePositionNaut miles runAvg speedWind from/ knotsBaromVisibWave heightAir tempDewpointWater temp
2018-Feb-22 18:27N 38°02' W 124°13'611.3
2018-Feb-22 17:53N 37°57' W 124°09'411.6
2018-Feb-22 17:30N 37°53' W 124°07'611.5
2018-Feb-22 16:57N 37°47' W 124°03'20611.7
2018-Feb-21 23:23N 34°48' W 121°58'513.8
2018-Feb-21 23:01N 34°44' W 121°54'713.9
2018-Feb-21 22:29N 34°37' W 121°50'713.8
2018-Feb-21 22:00N 34°32' W 121°46'713.7
2018-Feb-21 21:29N 34°26' W 121°42'713.4
2018-Feb-21 21:00N 34°20' W 121°39'713.7
2018-Feb-21 20:30N 34°13' W 121°35'713.5
2018-Feb-21 20:01N 34°07' W 121°31'713.1
2018-Feb-21 19:30N 34°01' W 121°28'713.3
2018-Feb-21 19:00N 33°56' W 121°24'713.0
2018-Feb-21 18:30N 33°50' W 121°21'712.9
2018-Feb-21 18:00N 33°44' W 121°17'613.0
2018-Feb-21 17:30N 33°39' W 121°12'713.2
2018-Feb-21 17:00N 33°34' W 121°07'612.9
2018-Feb-21 16:30N 33°29' W 121°03'612.0
2018-Feb-21 16:00N 33°24' W 120°58'611.8
2018-Feb-21 15:30N 33°19' W 120°54'611.4
2018-Feb-21 15:00N 33°15' W 120°50'511.1
2018-Feb-21 14:30N 33°10' W 120°46'511.0
2018-Feb-21 14:00N 33°06' W 120°42'611.1
2018-Feb-21 13:27N 33°01' W 120°38'  
Track history (hours):
 
Tides and Currents Weather Stations Pressure Air Temp Water Temp Dewpoint Dewpoint Depression Visibility Wind Speed Wind Dir Waves Ship Positions

Nave Sextans

Last reported at 2018-Feb-22 18:27 UTC. Time now 2018-Feb-22 19:15 UTC.
Position N 38°02' W 124°13'.

Length 183 m; draft 8.2 m.

Type: Tanker. MMSI: 372151000.

Date/timePositionNaut miles runAvg speedWind from/ knotsBaromVisibWave heightAir tempDewpointWater temp
2018-Feb-22 18:27N 38°02' W 124°13'611.3
2018-Feb-22 17:53N 37°57' W 124°09'411.6
2018-Feb-22 17:30N 37°53' W 124°07'611.5
2018-Feb-22 16:57N 37°47' W 124°03'20611.7
2018-Feb-21 23:23N 34°48' W 121°58'513.8
2018-Feb-21 23:01N 34°44' W 121°54'713.9
2018-Feb-21 22:29N 34°37' W 121°50'713.8
2018-Feb-21 22:00N 34°32' W 121°46'713.7
2018-Feb-21 21:29N 34°26' W 121°42'713.4
2018-Feb-21 21:00N 34°20' W 121°39'713.7
2018-Feb-21 20:30N 34°13' W 121°35'713.5
2018-Feb-21 20:01N 34°07' W 121°31'713.1
2018-Feb-21 19:30N 34°01' W 121°28'713.3
2018-Feb-21 19:00N 33°56' W 121°24'713.0
2018-Feb-21 18:30N 33°50' W 121°21'712.9
2018-Feb-21 18:00N 33°44' W 121°17'613.0
2018-Feb-21 17:30N 33°39' W 121°12'713.2
2018-Feb-21 17:00N 33°34' W 121°07'612.9
2018-Feb-21 16:30N 33°29' W 121°03'612.0
2018-Feb-21 16:00N 33°24' W 120°58'611.8
2018-Feb-21 15:30N 33°19' W 120°54'611.4
2018-Feb-21 15:00N 33°15' W 120°50'511.1
2018-Feb-21 14:30N 33°10' W 120°46'511.0
2018-Feb-21 14:00N 33°06' W 120°42'611.1
2018-Feb-21 13:27N 33°01' W 120°38'  

Dump ship's entire track history